sensor_id;sensor_type;location;lat;lon;timestamp;pressure;altitude;pressure_sealevel;temperature;humidity
61136;BME280;47021;51.340;12.432;2022-10-16T00:00:13;99799.47;;;19.57;66.88
61136;BME280;47021;51.340;12.432;2022-10-16T00:02:47;99801.97;;;19.71;66.30
61136;BME280;47021;51.340;12.432;2022-10-16T00:05:18;99805.84;;;19.69;66.21
61136;BME280;47021;51.340;12.432;2022-10-16T00:07:51;99803.88;;;19.78;66.26
61136;BME280;47021;51.340;12.432;2022-10-16T00:10:17;99807.31;;;19.78;66.63
61136;BME280;47021;51.340;12.432;2022-10-16T00:12:42;99798.84;;;19.89;65.59
61136;BME280;47021;51.340;12.432;2022-10-16T00:15:08;99806.56;;;19.84;65.53
61136;BME280;47021;51.340;12.432;2022-10-16T00:17:33;99803.47;;;19.81;66.33
61136;BME280;47021;51.340;12.432;2022-10-16T00:20:01;99799.59;;;19.77;65.98
61136;BME280;47021;51.340;12.432;2022-10-16T00:22:30;99819.66;;;19.92;65.71
61136;BME280;47021;51.340;12.432;2022-10-16T00:25:03;99815.53;;;19.83;65.55
61136;BME280;47021;51.340;12.432;2022-10-16T00:27:36;99817.78;;;19.86;65.89
61136;BME280;47021;51.340;12.432;2022-10-16T00:30:02;99824.22;;;19.70;66.75
61136;BME280;47021;51.340;12.432;2022-10-16T00:32:27;99823.06;;;19.80;66.65
61136;BME280;47021;51.340;12.432;2022-10-16T00:34:53;99816.38;;;19.90;65.95
61136;BME280;47021;51.340;12.432;2022-10-16T00:37:18;99819.53;;;20.07;65.51
61136;BME280;47021;51.340;12.432;2022-10-16T00:39:49;99820.78;;;20.11;65.80
61136;BME280;47021;51.340;12.432;2022-10-16T00:42:17;99818.59;;;20.21;65.15
61136;BME280;47021;51.340;12.432;2022-10-16T00:44:55;99825.88;;;20.12;65.00
61136;BME280;47021;51.340;12.432;2022-10-16T00:47:39;99828.88;;;20.30;64.52
61136;BME280;47021;51.340;12.432;2022-10-16T00:50:27;99820.50;;;20.27;64.72
61136;BME280;47021;51.340;12.432;2022-10-16T00:52:54;99827.66;;;20.33;65.01
61136;BME280;47021;51.340;12.432;2022-10-16T00:55:21;99820.09;;;20.30;64.77
61136;BME280;47021;51.340;12.432;2022-10-16T00:57:49;99825.22;;;20.38;64.27
61136;BME280;47021;51.340;12.432;2022-10-16T01:00:19;99822.75;;;20.30;64.77
61136;BME280;47021;51.340;12.432;2022-10-16T01:02:59;99823.00;;;20.35;64.57
61136;BME280;47021;51.340;12.432;2022-10-16T01:05:49;99815.94;;;20.21;65.00
61136;BME280;47021;51.340;12.432;2022-10-16T01:08:44;99822.16;;;20.34;64.69
61136;BME280;47021;51.340;12.432;2022-10-16T01:11:23;99821.34;;;20.34;64.41
61136;BME280;47021;51.340;12.432;2022-10-16T01:14:57;99814.31;;;20.20;64.89
61136;BME280;47021;51.340;12.432;2022-10-16T01:17:28;99828.09;;;20.02;65.73
61136;BME280;47021;51.340;12.432;2022-10-16T01:20:31;99828.59;;;20.19;64.83
61136;BME280;47021;51.340;12.432;2022-10-16T01:23:09;99836.19;;;20.28;64.40
61136;BME280;47021;51.340;12.432;2022-10-16T01:28:54;99835.25;;;20.08;65.37
61136;BME280;47021;51.340;12.432;2022-10-16T01:31:27;99828.97;;;20.16;65.31
61136;BME280;47021;51.340;12.432;2022-10-16T01:34:35;99838.72;;;20.09;65.13
61136;BME280;47021;51.340;12.432;2022-10-16T01:37:09;99836.31;;;20.14;65.25
61136;BME280;47021;51.340;12.432;2022-10-16T01:39:52;99841.06;;;19.91;66.05
61136;BME280;47021;51.340;12.432;2022-10-16T01:42:34;99846.06;;;20.07;65.43
61136;BME280;47021;51.340;12.432;2022-10-16T01:45:05;99845.00;;;20.01;65.86
61136;BME280;47021;51.340;12.432;2022-10-16T01:47:33;99849.66;;;19.99;65.83
61136;BME280;47021;51.340;12.432;2022-10-16T01:50:18;99842.88;;;19.90;66.06
61136;BME280;47021;51.340;12.432;2022-10-16T01:52:49;99857.50;;;19.80;66.38
61136;BME280;47021;51.340;12.432;2022-10-16T01:55:30;99861.31;;;19.70;66.65
61136;BME280;47021;51.340;12.432;2022-10-16T01:57:59;99863.34;;;19.68;66.75
61136;BME280;47021;51.340;12.432;2022-10-16T02:00:29;99866.31;;;19.87;66.05
61136;BME280;47021;51.340;12.432;2022-10-16T02:02:57;99871.22;;;19.90;65.75
61136;BME280;47021;51.340;12.432;2022-10-16T02:05:45;99861.19;;;19.85;66.36
61136;BME280;47021;51.340;12.432;2022-10-16T02:08:15;99854.28;;;19.84;66.06
61136;BME280;47021;51.340;12.432;2022-10-16T02:10:41;99851.97;;;19.53;67.42
61136;BME280;47021;51.340;12.432;2022-10-16T02:13:10;99850.47;;;19.65;66.83
61136;BME280;47021;51.340;12.432;2022-10-16T02:15:45;99847.91;;;19.79;66.28
61136;BME280;47021;51.340;12.432;2022-10-16T02:18:13;99846.28;;;19.78;66.05
61136;BME280;47021;51.340;12.432;2022-10-16T02:21:14;99831.47;;;19.62;66.96
61136;BME280;47021;51.340;12.432;2022-10-16T02:27:00;99869.25;;;19.70;66.63
61136;BME280;47021;51.340;12.432;2022-10-16T02:29:44;99875.19;;;19.51;67.52
61136;BME280;47021;51.340;12.432;2022-10-16T02:32:12;99872.28;;;19.46;67.50
61136;BME280;47021;51.340;12.432;2022-10-16T02:34:40;99881.63;;;19.63;67.05
61136;BME280;47021;51.340;12.432;2022-10-16T02:37:34;99887.56;;;19.65;66.56
61136;BME280;47021;51.340;12.432;2022-10-16T02:40:01;99886.16;;;19.69;66.20
61136;BME280;47021;51.340;12.432;2022-10-16T02:42:35;99877.28;;;19.56;66.94
61136;BME280;47021;51.340;12.432;2022-10-16T02:45:10;99882.94;;;19.53;67.33
61136;BME280;47021;51.340;12.432;2022-10-16T02:47:54;99888.50;;;19.58;66.58
61136;BME280;47021;51.340;12.432;2022-10-16T02:53:10;99879.16;;;19.62;66.58
61136;BME280;47021;51.340;12.432;2022-10-16T02:55:36;99873.19;;;19.53;66.77
61136;BME280;47021;51.340;12.432;2022-10-16T02:58:02;99873.13;;;19.47;67.44
61136;BME280;47021;51.340;12.432;2022-10-16T03:00:27;99879.66;;;19.51;66.69
61136;BME280;47021;51.340;12.432;2022-10-16T03:03:05;99873.31;;;19.45;66.65
61136;BME280;47021;51.340;12.432;2022-10-16T03:05:31;99872.03;;;19.41;67.16
61136;BME280;47021;51.340;12.432;2022-10-16T03:08:12;99878.22;;;19.48;66.85
61136;BME280;47021;51.340;12.432;2022-10-16T03:10:38;99879.41;;;19.46;67.06
61136;BME280;47021;51.340;12.432;2022-10-16T03:13:05;99881.63;;;19.42;67.41
61136;BME280;47021;51.340;12.432;2022-10-16T03:15:30;99884.28;;;19.42;67.64
61136;BME280;47021;51.340;12.432;2022-10-16T03:17:59;99884.03;;;19.37;67.48
61136;BME280;47021;51.340;12.432;2022-10-16T03:20:26;99893.38;;;19.19;68.56
61136;BME280;47021;51.340;12.432;2022-10-16T03:22:53;99882.13;;;18.95;68.93
61136;BME280;47021;51.340;12.432;2022-10-16T03:25:25;99886.41;;;19.11;69.03
61136;BME280;47021;51.340;12.432;2022-10-16T03:27:52;99877.19;;;19.28;68.33
61136;BME280;47021;51.340;12.432;2022-10-16T03:30:38;99884.41;;;19.34;67.92
61136;BME280;47021;51.340;12.432;2022-10-16T03:33:21;99901.56;;;19.38;67.81
61136;BME280;47021;51.340;12.432;2022-10-16T03:35:59;99910.22;;;19.11;68.65
61136;BME280;47021;51.340;12.432;2022-10-16T03:38:26;99910.84;;;19.13;69.38
61136;BME280;47021;51.340;12.432;2022-10-16T03:40:51;99913.41;;;19.42;67.97
61136;BME280;47021;51.340;12.432;2022-10-16T03:43:17;99911.19;;;19.46;67.48
61136;BME280;47021;51.340;12.432;2022-10-16T03:45:44;99903.59;;;19.36;68.33
61136;BME280;47021;51.340;12.432;2022-10-16T03:48:16;99899.56;;;19.40;68.23
61136;BME280;47021;51.340;12.432;2022-10-16T03:50:41;99905.34;;;19.50;67.57
61136;BME280;47021;51.340;12.432;2022-10-16T03:53:13;99892.44;;;19.41;67.77
61136;BME280;47021;51.340;12.432;2022-10-16T03:55:47;99883.94;;;19.31;68.06
61136;BME280;47021;51.340;12.432;2022-10-16T03:58:12;99896.34;;;19.30;68.09
61136;BME280;47021;51.340;12.432;2022-10-16T04:00:48;99890.16;;;19.38;67.96
61136;BME280;47021;51.340;12.432;2022-10-16T04:03:15;99876.34;;;19.42;68.33
61136;BME280;47021;51.340;12.432;2022-10-16T04:05:43;99895.97;;;19.33;68.03
61136;BME280;47021;51.340;12.432;2022-10-16T04:08:09;99890.16;;;19.38;67.61
61136;BME280;47021;51.340;12.432;2022-10-16T04:10:35;99894.31;;;19.47;67.77
61136;BME280;47021;51.340;12.432;2022-10-16T04:13:07;99888.19;;;19.46;67.66
61136;BME280;47021;51.340;12.432;2022-10-16T04:15:34;99882.84;;;19.25;68.26
61136;BME280;47021;51.340;12.432;2022-10-16T04:18:14;99895.06;;;19.05;69.05
61136;BME280;47021;51.340;12.432;2022-10-16T04:20:40;99893.00;;;19.36;67.93
61136;BME280;47021;51.340;12.432;2022-10-16T04:23:05;99893.88;;;19.43;67.66
61136;BME280;47021;51.340;12.432;2022-10-16T04:25:31;99888.41;;;19.30;68.00
61136;BME280;47021;51.340;12.432;2022-10-16T04:27:58;99908.88;;;19.36;67.74
61136;BME280;47021;51.340;12.432;2022-10-16T04:30:26;99910.50;;;19.37;67.81
61136;BME280;47021;51.340;12.432;2022-10-16T04:32:59;99916.63;;;19.38;67.57
61136;BME280;47021;51.340;12.432;2022-10-16T04:35:25;99936.25;;;19.29;67.79
61136;BME280;47021;51.340;12.432;2022-10-16T04:37:58;99931.91;;;19.21;68.01
61136;BME280;47021;51.340;12.432;2022-10-16T04:40:23;99923.69;;;19.16;67.96
61136;BME280;47021;51.340;12.432;2022-10-16T04:42:54;99923.81;;;19.08;68.30
61136;BME280;47021;51.340;12.432;2022-10-16T04:45:27;99921.88;;;19.17;68.39
61136;BME280;47021;51.340;12.432;2022-10-16T04:47:52;99933.41;;;19.09;68.65
61136;BME280;47021;51.340;12.432;2022-10-16T04:50:31;99943.34;;;19.07;68.75
61136;BME280;47021;51.340;12.432;2022-10-16T04:52:56;99939.69;;;19.08;68.32
61136;BME280;47021;51.340;12.432;2022-10-16T04:55:27;99939.50;;;19.10;68.61
61136;BME280;47021;51.340;12.432;2022-10-16T04:57:59;99934.06;;;18.96;68.84
61136;BME280;47021;51.340;12.432;2022-10-16T05:00:24;99947.84;;;19.07;68.75
61136;BME280;47021;51.340;12.432;2022-10-16T05:02:56;99947.34;;;19.18;69.11
61136;BME280;47021;51.340;12.432;2022-10-16T05:05:21;99949.69;;;19.27;67.99
61136;BME280;47021;51.340;12.432;2022-10-16T05:07:54;99963.31;;;19.10;68.80
61136;BME280;47021;51.340;12.432;2022-10-16T05:10:19;99966.66;;;18.97;68.95
61136;BME280;47021;51.340;12.432;2022-10-16T05:12:58;99964.53;;;19.07;68.64
61136;BME280;47021;51.340;12.432;2022-10-16T05:15:23;99967.81;;;19.09;68.53
61136;BME280;47021;51.340;12.432;2022-10-16T05:17:54;99970.56;;;19.01;68.68
61136;BME280;47021;51.340;12.432;2022-10-16T05:20:33;99960.16;;;18.99;69.15
61136;BME280;47021;51.340;12.432;2022-10-16T05:22:59;99970.75;;;18.99;68.62
61136;BME280;47021;51.340;12.432;2022-10-16T05:25:26;99962.63;;;19.01;68.94
61136;BME280;47021;51.340;12.432;2022-10-16T05:27:52;99960.19;;;19.21;68.10
61136;BME280;47021;51.340;12.432;2022-10-16T05:30:24;99963.16;;;19.11;68.15
61136;BME280;47021;51.340;12.432;2022-10-16T05:32:56;99968.19;;;19.06;68.65
61136;BME280;47021;51.340;12.432;2022-10-16T05:35:23;99974.00;;;19.16;67.81
61136;BME280;47021;51.340;12.432;2022-10-16T05:38:07;99975.22;;;18.99;68.46
61136;BME280;47021;51.340;12.432;2022-10-16T05:40:32;99965.88;;;19.18;67.70
61136;BME280;47021;51.340;12.432;2022-10-16T05:42:57;99974.66;;;19.18;68.12
61136;BME280;47021;51.340;12.432;2022-10-16T05:45:23;99979.84;;;19.12;67.94
61136;BME280;47021;51.340;12.432;2022-10-16T05:47:48;99982.59;;;19.18;68.08
61136;BME280;47021;51.340;12.432;2022-10-16T05:50:13;99977.13;;;19.05;68.04
61136;BME280;47021;51.340;12.432;2022-10-16T05:52:46;99975.31;;;19.06;68.33
61136;BME280;47021;51.340;12.432;2022-10-16T05:55:20;99989.31;;;19.21;67.91
61136;BME280;47021;51.340;12.432;2022-10-16T05:57:47;99985.69;;;19.22;67.92
61136;BME280;47021;51.340;12.432;2022-10-16T06:00:13;99992.06;;;19.27;67.78
61136;BME280;47021;51.340;12.432;2022-10-16T06:02:40;100001.91;;;19.33;67.22
61136;BME280;47021;51.340;12.432;2022-10-16T06:05:12;100011.28;;;19.50;66.95
61136;BME280;47021;51.340;12.432;2022-10-16T06:07:44;100001.00;;;19.41;67.60
61136;BME280;47021;51.340;12.432;2022-10-16T06:10:11;100009.03;;;19.47;67.43
61136;BME280;47021;51.340;12.432;2022-10-16T06:12:37;100015.34;;;19.67;66.32
61136;BME280;47021;51.340;12.432;2022-10-16T06:15:08;100016.34;;;19.88;65.71
61136;BME280;47021;51.340;12.432;2022-10-16T06:17:34;100016.63;;;19.93;65.91
61136;BME280;47021;51.340;12.432;2022-10-16T06:20:06;100013.38;;;19.97;65.02
61136;BME280;47021;51.340;12.432;2022-10-16T06:22:38;100014.31;;;20.11;65.46
61136;BME280;47021;51.340;12.432;2022-10-16T06:25:30;100021.34;;;20.18;64.80
61136;BME280;47021;51.340;12.432;2022-10-16T06:27:58;100018.75;;;20.25;64.77
61136;BME280;47021;51.340;12.432;2022-10-16T06:30:23;100021.28;;;20.12;65.13
61136;BME280;47021;51.340;12.432;2022-10-16T06:33:12;100018.22;;;20.15;65.21
61136;BME280;47021;51.340;12.432;2022-10-16T06:35:37;100017.59;;;19.92;66.08
61136;BME280;47021;51.340;12.432;2022-10-16T06:38:04;100032.72;;;19.91;66.23
61136;BME280;47021;51.340;12.432;2022-10-16T06:40:29;100036.09;;;20.06;66.12
61136;BME280;47021;51.340;12.432;2022-10-16T06:42:57;100040.41;;;20.28;64.74
61136;BME280;47021;51.340;12.432;2022-10-16T06:45:24;100046.84;;;19.98;65.90
61136;BME280;47021;51.340;12.432;2022-10-16T06:47:51;100040.59;;;20.27;65.54
61136;BME280;47021;51.340;12.432;2022-10-16T06:50:23;100050.63;;;20.10;65.80
61136;BME280;47021;51.340;12.432;2022-10-16T06:52:54;100049.03;;;20.16;65.35
61136;BME280;47021;51.340;12.432;2022-10-16T06:55:19;100055.81;;;20.18;65.46
61136;BME280;47021;51.340;12.432;2022-10-16T06:58:03;100058.47;;;20.39;64.63
61136;BME280;47021;51.340;12.432;2022-10-16T07:00:56;100059.41;;;20.32;65.04
61136;BME280;47021;51.340;12.432;2022-10-16T07:03:21;100060.72;;;20.42;64.88
61136;BME280;47021;51.340;12.432;2022-10-16T07:05:47;100055.16;;;20.37;65.17
61136;BME280;47021;51.340;12.432;2022-10-16T07:08:35;100063.59;;;20.69;64.34
61136;BME280;47021;51.340;12.432;2022-10-16T07:11:07;100048.56;;;20.55;64.70
61136;BME280;47021;51.340;12.432;2022-10-16T07:13:36;100059.75;;;20.78;64.52
61136;BME280;47021;51.340;12.432;2022-10-16T07:16:09;100055.97;;;20.93;64.00
61136;BME280;47021;51.340;12.432;2022-10-16T07:18:35;100032.56;;;20.69;64.56
61136;BME280;47021;51.340;12.432;2022-10-16T07:21:11;100008.13;;;20.80;64.23
61136;BME280;47021;51.340;12.432;2022-10-16T07:23:38;99993.81;;;20.81;64.48
61136;BME280;47021;51.340;12.432;2022-10-16T07:26:04;100023.72;;;20.96;64.14
61136;BME280;47021;51.340;12.432;2022-10-16T07:28:36;100047.94;;;21.08;63.68
61136;BME280;47021;51.340;12.432;2022-10-16T07:31:12;100052.16;;;21.43;63.13
61136;BME280;47021;51.340;12.432;2022-10-16T07:33:39;100055.25;;;21.53;62.27
61136;BME280;47021;51.340;12.432;2022-10-16T07:36:07;100071.06;;;21.74;62.16
61136;BME280;47021;51.340;12.432;2022-10-16T07:38:41;100079.94;;;21.41;62.25
61136;BME280;47021;51.340;12.432;2022-10-16T07:41:09;100086.25;;;21.33;62.77
61136;BME280;47021;51.340;12.432;2022-10-16T07:43:34;100076.50;;;21.47;62.27
61136;BME280;47021;51.340;12.432;2022-10-16T07:46:13;100076.56;;;21.73;61.61
61136;BME280;47021;51.340;12.432;2022-10-16T07:48:40;100078.72;;;21.97;61.13
61136;BME280;47021;51.340;12.432;2022-10-16T07:51:06;100077.69;;;21.98;61.09
61136;BME280;47021;51.340;12.432;2022-10-16T07:53:34;100078.13;;;22.15;60.33
61136;BME280;47021;51.340;12.432;2022-10-16T07:56:01;100079.34;;;21.93;61.29
61136;BME280;47021;51.340;12.432;2022-10-16T07:58:27;100081.78;;;22.07;60.74
61136;BME280;47021;51.340;12.432;2022-10-16T08:00:54;100087.97;;;22.27;59.79
61136;BME280;47021;51.340;12.432;2022-10-16T08:03:20;100087.56;;;22.24;59.95
61136;BME280;47021;51.340;12.432;2022-10-16T08:05:45;100096.19;;;22.39;59.70
61136;BME280;47021;51.340;12.432;2022-10-16T08:08:13;100099.03;;;22.90;59.01
61136;BME280;47021;51.340;12.432;2022-10-16T08:10:39;100097.16;;;23.03;58.38
61136;BME280;47021;51.340;12.432;2022-10-16T08:13:12;100089.38;;;23.02;57.84
61136;BME280;47021;51.340;12.432;2022-10-16T08:15:38;100098.63;;;22.86;57.83
61136;BME280;47021;51.340;12.432;2022-10-16T08:18:13;100103.06;;;23.18;57.75
61136;BME280;47021;51.340;12.432;2022-10-16T08:20:44;100103.00;;;23.51;56.30
61136;BME280;47021;51.340;12.432;2022-10-16T08:23:11;100111.97;;;23.63;56.25
61136;BME280;47021;51.340;12.432;2022-10-16T08:25:37;100121.84;;;23.50;56.66
61136;BME280;47021;51.340;12.432;2022-10-16T08:28:06;100125.81;;;23.85;55.63
61136;BME280;47021;51.340;12.432;2022-10-16T08:30:38;100122.81;;;23.68;56.13
61136;BME280;47021;51.340;12.432;2022-10-16T08:33:03;100127.88;;;23.06;57.06
61136;BME280;47021;51.340;12.432;2022-10-16T08:35:31;100116.63;;;23.17;57.49
61136;BME280;47021;51.340;12.432;2022-10-16T08:37:57;100111.50;;;23.73;55.77
61136;BME280;47021;51.340;12.432;2022-10-16T08:40:28;100121.00;;;23.62;55.38
61136;BME280;47021;51.340;12.432;2022-10-16T08:43:12;100126.78;;;23.53;55.61
61136;BME280;47021;51.340;12.432;2022-10-16T08:46:01;100130.56;;;23.12;56.00
61136;BME280;47021;51.340;12.432;2022-10-16T08:48:50;100135.97;;;23.57;55.52
61136;BME280;47021;51.340;12.432;2022-10-16T08:51:26;100145.00;;;24.07;54.17
61136;BME280;47021;51.340;12.432;2022-10-16T08:54:02;100145.38;;;24.17;54.15
61136;BME280;47021;51.340;12.432;2022-10-16T08:56:32;100143.06;;;23.82;54.94
61136;BME280;47021;51.340;12.432;2022-10-16T08:59:00;100156.59;;;23.88;55.21
61136;BME280;47021;51.340;12.432;2022-10-16T09:01:43;100154.41;;;24.47;53.39
61136;BME280;47021;51.340;12.432;2022-10-16T09:07:49;100168.31;;;24.24;53.56
61136;BME280;47021;51.340;12.432;2022-10-16T09:10:39;100176.63;;;24.03;53.84
61136;BME280;47021;51.340;12.432;2022-10-16T09:13:26;100177.41;;;24.48;53.31
61136;BME280;47021;51.340;12.432;2022-10-16T09:16:12;100180.03;;;24.54;53.05
61136;BME280;47021;51.340;12.432;2022-10-16T09:22:13;100173.31;;;25.01;51.98
61136;BME280;47021;51.340;12.432;2022-10-16T09:24:40;100176.69;;;25.15;51.65
61136;BME280;47021;51.340;12.432;2022-10-16T09:27:14;100171.88;;;24.74;52.74
61136;BME280;47021;51.340;12.432;2022-10-16T09:29:40;100173.63;;;24.31;53.69
61136;BME280;47021;51.340;12.432;2022-10-16T09:32:20;100174.16;;;24.77;52.60
61136;BME280;47021;51.340;12.432;2022-10-16T09:34:49;100179.97;;;24.92;52.64
61136;BME280;47021;51.340;12.432;2022-10-16T09:37:20;100184.00;;;25.01;52.33
61136;BME280;47021;51.340;12.432;2022-10-16T09:39:49;100186.53;;;25.14;52.39
61136;BME280;47021;51.340;12.432;2022-10-16T09:42:31;100185.66;;;25.02;52.31
61136;BME280;47021;51.340;12.432;2022-10-16T09:44:58;100191.78;;;25.03;52.75
61136;BME280;47021;51.340;12.432;2022-10-16T09:47:26;100188.09;;;25.65;50.66
61136;BME280;47021;51.340;12.432;2022-10-16T09:50:20;100194.69;;;25.01;52.12
61136;BME280;47021;51.340;12.432;2022-10-16T09:52:46;100194.75;;;25.38;51.84
61136;BME280;47021;51.340;12.432;2022-10-16T09:55:17;100186.75;;;25.92;50.94
61136;BME280;47021;51.340;12.432;2022-10-16T09:57:55;100180.41;;;26.05;50.58
61136;BME280;47021;51.340;12.432;2022-10-16T10:00:24;100196.06;;;25.29;51.53
61136;BME280;47021;51.340;12.432;2022-10-16T10:02:55;100201.50;;;24.97;52.36
61136;BME280;47021;51.340;12.432;2022-10-16T10:05:35;100200.41;;;24.05;54.96
61136;BME280;47021;51.340;12.432;2022-10-16T10:08:02;100210.78;;;23.75;55.53
61136;BME280;47021;51.340;12.432;2022-10-16T10:10:32;100197.59;;;24.69;53.45
61136;BME280;47021;51.340;12.432;2022-10-16T10:12:58;100197.47;;;24.88;52.99
61136;BME280;47021;51.340;12.432;2022-10-16T10:18:19;100209.50;;;24.66;53.36
61136;BME280;47021;51.340;12.432;2022-10-16T10:20:45;100210.94;;;25.00;52.69
61136;BME280;47021;51.340;12.432;2022-10-16T10:23:28;100218.78;;;24.32;54.10
61136;BME280;47021;51.340;12.432;2022-10-16T10:28:47;100217.28;;;24.43;53.67
61136;BME280;47021;51.340;12.432;2022-10-16T10:45:18;100216.06;;;24.45;54.13
61136;BME280;47021;51.340;12.432;2022-10-16T10:50:58;100227.94;;;24.49;54.01
61136;BME280;47021;51.340;12.432;2022-10-16T10:56:42;100224.16;;;24.57;53.84
61136;BME280;47021;51.340;12.432;2022-10-16T11:07:36;100233.59;;;24.28;54.01
61136;BME280;47021;51.340;12.432;2022-10-16T11:10:09;100227.66;;;24.58;53.17
61136;BME280;47021;51.340;12.432;2022-10-16T11:13:22;100224.69;;;24.72;52.79
61136;BME280;47021;51.340;12.432;2022-10-16T11:15:53;100222.72;;;24.61;53.45
61136;BME280;47021;51.340;12.432;2022-10-16T11:18:24;100227.00;;;24.31;54.09
61136;BME280;47021;51.340;12.432;2022-10-16T11:21:06;100226.53;;;24.72;52.52
61136;BME280;47021;51.340;12.432;2022-10-16T11:23:45;100221.34;;;24.14;54.82
61136;BME280;47021;51.340;12.432;2022-10-16T11:26:52;100211.13;;;24.74;53.17
61136;BME280;47021;51.340;12.432;2022-10-16T11:29:26;100216.72;;;24.97;52.21
61136;BME280;47021;51.340;12.432;2022-10-16T11:38:02;100231.13;;;24.96;52.73
61136;BME280;47021;51.340;12.432;2022-10-16T11:40:33;100226.28;;;25.54;51.59
61136;BME280;47021;51.340;12.432;2022-10-16T11:43:43;100239.19;;;25.39;51.57
61136;BME280;47021;51.340;12.432;2022-10-16T11:46:21;100243.56;;;25.58;51.11
61136;BME280;47021;51.340;12.432;2022-10-16T11:49:08;100246.22;;;25.33;51.54
61136;BME280;47021;51.340;12.432;2022-10-16T11:54:57;100239.34;;;24.94;52.94
61136;BME280;47021;51.340;12.432;2022-10-16T11:58:00;100246.19;;;24.90;53.07
61136;BME280;47021;51.340;12.432;2022-10-16T12:00:50;100245.34;;;25.39;52.04
61136;BME280;47021;51.340;12.432;2022-10-16T12:03:26;100246.88;;;25.29;51.54
61136;BME280;47021;51.340;12.432;2022-10-16T12:08:35;100253.25;;;24.72;53.39
61136;BME280;47021;51.340;12.432;2022-10-16T12:11:22;100256.88;;;25.15;51.92
61136;BME280;47021;51.340;12.432;2022-10-16T12:13:50;100252.94;;;24.93;53.03
61136;BME280;47021;51.340;12.432;2022-10-16T12:16:28;100248.19;;;25.19;52.56
61136;BME280;47021;51.340;12.432;2022-10-16T12:19:14;100255.00;;;25.15;52.27
61136;BME280;47021;51.340;12.432;2022-10-16T12:21:59;100252.28;;;25.22;52.20
61136;BME280;47021;51.340;12.432;2022-10-16T12:27:31;100254.28;;;25.27;52.07
61136;BME280;47021;51.340;12.432;2022-10-16T12:30:06;100256.66;;;25.16;52.30
61136;BME280;47021;51.340;12.432;2022-10-16T12:32:58;100266.59;;;24.78;53.35
61136;BME280;47021;51.340;12.432;2022-10-16T12:35:35;100272.78;;;24.72;53.63
61136;BME280;47021;51.340;12.432;2022-10-16T12:41:00;100270.22;;;24.02;55.68
61136;BME280;47021;51.340;12.432;2022-10-16T12:52:00;100273.06;;;24.58;54.56
61136;BME280;47021;51.340;12.432;2022-10-16T12:54:56;100277.34;;;24.96;53.17
61136;BME280;47021;51.340;12.432;2022-10-16T12:57:51;100271.47;;;24.50;54.41
61136;BME280;47021;51.340;12.432;2022-10-16T13:00:44;100287.00;;;24.60;54.49
61136;BME280;47021;51.340;12.432;2022-10-16T13:22:17;100291.75;;;24.58;54.11
61136;BME280;47021;51.340;12.432;2022-10-16T13:25:24;100293.94;;;24.36;54.82
61136;BME280;47021;51.340;12.432;2022-10-16T13:28:00;100290.22;;;24.75;53.83
61136;BME280;47021;51.340;12.432;2022-10-16T13:30:29;100289.81;;;24.84;53.47
61136;BME280;47021;51.340;12.432;2022-10-16T13:33:02;100287.31;;;25.39;52.45
61136;BME280;47021;51.340;12.432;2022-10-16T13:35:30;100290.59;;;25.16;52.80
61136;BME280;47021;51.340;12.432;2022-10-16T13:38:15;100297.00;;;25.08;52.80
61136;BME280;47021;51.340;12.432;2022-10-16T13:40:55;100294.56;;;24.69;53.48
61136;BME280;47021;51.340;12.432;2022-10-16T13:43:43;100291.25;;;25.11;52.50
61136;BME280;47021;51.340;12.432;2022-10-16T13:46:17;100297.13;;;25.20;52.50
61136;BME280;47021;51.340;12.432;2022-10-16T13:48:45;100294.75;;;25.05;53.26
61136;BME280;47021;51.340;12.432;2022-10-16T13:51:22;100309.13;;;24.73;52.68
61136;BME280;47021;51.340;12.432;2022-10-16T13:53:55;100302.16;;;25.35;51.72
61136;BME280;47021;51.340;12.432;2022-10-16T13:56:23;100306.41;;;25.42;51.45
61136;BME280;47021;51.340;12.432;2022-10-16T13:59:20;100310.19;;;25.35;51.70
61136;BME280;47021;51.340;12.432;2022-10-16T14:01:48;100312.47;;;25.56;51.10
61136;BME280;47021;51.340;12.432;2022-10-16T14:04:23;100313.94;;;24.58;53.85
61136;BME280;47021;51.340;12.432;2022-10-16T14:06:51;100323.72;;;24.33;54.07
61136;BME280;47021;51.340;12.432;2022-10-16T14:09:21;100327.38;;;24.45;54.27
61136;BME280;47021;51.340;12.432;2022-10-16T14:11:53;100338.25;;;24.50;53.53
61136;BME280;47021;51.340;12.432;2022-10-16T14:14:40;100329.69;;;24.28;53.77
61136;BME280;47021;51.340;12.432;2022-10-16T14:17:19;100333.31;;;24.47;53.74
61136;BME280;47021;51.340;12.432;2022-10-16T14:20:05;100333.38;;;24.78;52.99
61136;BME280;47021;51.340;12.432;2022-10-16T14:22:32;100341.81;;;24.69;53.31
61136;BME280;47021;51.340;12.432;2022-10-16T14:25:02;100342.09;;;24.61;53.74
61136;BME280;47021;51.340;12.432;2022-10-16T14:27:41;100344.69;;;24.74;53.46
61136;BME280;47021;51.340;12.432;2022-10-16T14:30:36;100333.28;;;24.98;52.58
61136;BME280;47021;51.340;12.432;2022-10-16T14:33:25;100348.47;;;24.53;53.45
61136;BME280;47021;51.340;12.432;2022-10-16T14:36:12;100332.09;;;24.87;53.04
61136;BME280;47021;51.340;12.432;2022-10-16T14:41:31;100328.34;;;24.95;52.79
61136;BME280;47021;51.340;12.432;2022-10-16T14:44:01;100340.06;;;24.94;52.94
61136;BME280;47021;51.340;12.432;2022-10-16T14:46:42;100328.31;;;25.01;52.55
61136;BME280;47021;51.340;12.432;2022-10-16T14:49:17;100331.72;;;25.15;52.37
61136;BME280;47021;51.340;12.432;2022-10-16T14:51:46;100333.31;;;24.91;52.83
61136;BME280;47021;51.340;12.432;2022-10-16T14:54:13;100346.69;;;24.91;53.01
61136;BME280;47021;51.340;12.432;2022-10-16T14:56:53;100338.25;;;24.88;53.06